Time;durP1;ratioP1;P1;durP2;ratioP2;P2;SDS_P1;SDS_P2;PMS_P1;PMS_P2;Temp;Humidity;BMP_temperature;BMP_pressure;BME280_temperature;BME280_humidity;BME280_pressure;Samples;Min_cycle;Max_cycle;Signal;HPM_P1;HPM_P2
2022/11/13 00:02:38;;;;;;;35.30;25.60;;;;;;;10.56;77.88;102014.68;102770;1283;94369;-85
2022/11/13 00:05:28;;;;;;;35.80;25.40;;;;;;;10.59;77.64;102012.02;102738;1283;139518;-85
2022/11/13 00:08:18;;;;;;;35.50;25.40;;;;;;;10.56;77.81;102013.44;102691;1284;99526;-85
2022/11/13 00:11:09;;;;;;;35.60;26.00;;;;;;;10.50;77.74;102005.08;102674;1284;140196;-85
2022/11/13 00:13:58;;;;;;;37.10;26.60;;;;;;;10.49;77.93;102002.78;102748;1284;94797;-84
2022/11/13 00:16:48;;;;;;;37.40;26.70;;;;;;;10.58;77.96;102006.50;102734;1285;139381;-85
2022/11/13 00:19:37;;;;;;;38.20;26.90;;;;;;;10.65;77.67;102008.81;102775;1277;106920;-85
2022/11/13 00:22:26;;;;;;;41.60;29.50;;;;;;;10.72;77.80;102010.92;102752;1284;139171;-84
2022/11/13 00:25:16;;;;;;;39.50;28.40;;;;;;;10.73;77.49;102006.84;102669;1285;108550;-84
2022/11/13 00:28:05;;;;;;;40.90;27.90;;;;;;;10.74;77.45;101999.20;102646;1283;95594;-84
2022/11/13 00:31:00;;;;;;;36.20;25.80;;;;;;;10.80;77.40;102006.49;102616;1285;94690;-84
2022/11/13 00:33:50;;;;;;;33.50;23.90;;;;;;;10.80;77.30;102005.42;102836;1284;108166;-84
2022/11/13 00:37:00;;;;;;;35.30;24.10;;;;;;;10.79;77.22;102005.60;102818;1291;98585;-85
2022/11/13 00:39:49;;;;;;;34.10;23.60;;;;;;;10.80;77.33;102006.30;102875;1284;107437;-85
2022/11/13 00:42:44;;;;;;;36.50;25.40;;;;;;;10.83;77.17;102008.44;102738;1283;141250;-85
2022/11/13 00:45:33;;;;;;;33.80;24.00;;;;;;;10.76;77.11;102008.80;102913;1284;94259;-85
2022/11/13 00:48:23;;;;;;;32.60;22.90;;;;;;;10.70;77.34;102006.85;102702;1290;140896;-84
2022/11/13 00:51:13;;;;;;;32.80;23.70;;;;;;;10.68;77.42;102003.13;102801;1291;98526;-84
2022/11/13 00:54:02;;;;;;;34.60;24.00;;;;;;;10.68;77.46;102002.77;102559;1285;139264;-83
2022/11/13 00:56:52;;;;;;;35.80;25.60;;;;;;;10.66;77.59;101997.79;102488;1284;94835;-84
2022/11/13 00:59:41;;;;;;;36.30;24.40;;;;;;;10.68;77.62;101999.04;102372;1286;140313;-84
2022/11/13 01:02:31;;;;;;;35.70;24.90;;;;;;;10.71;77.66;101993.35;102491;1284;108996;-85
2022/11/13 01:05:20;;;;;;;33.50;23.20;;;;;;;10.73;77.51;101991.39;102200;1290;139511;-84
2022/11/13 01:08:11;;;;;;;33.70;23.20;;;;;;;10.71;77.52;101986.23;102316;1288;110619;-84
2022/11/13 01:11:00;;;;;;;31.80;21.80;;;;;;;10.67;77.59;101983.94;102324;1284;140365;-84
2022/11/13 01:13:51;;;;;;;32.90;23.20;;;;;;;10.69;77.59;101984.48;102636;1283;95079;-85
2022/11/13 01:16:41;;;;;;;33.00;23.00;;;;;;;10.65;77.69;101979.33;102600;1291;140864;-85
2022/11/13 01:19:30;;;;;;;32.20;22.50;;;;;;;10.62;77.77;101980.75;102745;1284;97933;-85
2022/11/13 01:22:20;;;;;;;34.30;23.20;;;;;;;10.68;78.01;101974.88;102708;1277;110343;-85
2022/11/13 01:25:10;;;;;;;32.50;22.40;;;;;;;10.74;77.65;101977.89;102701;1290;94318;-85
2022/11/13 01:28:00;;;;;;;31.60;21.70;;;;;;;10.77;77.72;101979.67;102763;1291;94322;-85
2022/11/13 01:30:49;;;;;;;30.00;21.10;;;;;;;10.81;77.73;101977.16;102548;1285;140194;-85
2022/11/13 01:33:38;;;;;;;32.10;22.70;;;;;;;10.84;77.42;101972.18;102742;1283;99272;-85
2022/11/13 01:36:29;;;;;;;31.10;21.30;;;;;;;10.88;77.36;101970.03;102716;1284;140622;-85
2022/11/13 01:39:19;;;;;;;30.30;20.80;;;;;;;10.85;77.11;101970.77;102753;1277;94351;-85
2022/11/13 01:42:08;;;;;;;30.80;21.20;;;;;;;10.81;77.19;101970.58;102719;1283;139443;-84
2022/11/13 01:45:01;;;;;;;30.60;21.20;;;;;;;10.81;77.16;101970.41;102731;1302;108477;-84
2022/11/13 01:47:51;;;;;;;30.80;20.80;;;;;;;10.83;77.52;101970.41;102690;1305;140246;-84
2022/11/13 01:50:40;;;;;;;30.30;21.00;;;;;;;10.78;77.24;101969.36;102840;1291;107353;-86
2022/11/13 01:53:30;;;;;;;29.60;20.40;;;;;;;10.75;77.46;101968.66;102622;1284;140971;-84
2022/11/13 01:56:19;;;;;;;31.40;21.10;;;;;;;10.75;77.54;101969.02;102892;1284;94895;-84
2022/11/13 01:59:13;;;;;;;31.40;21.70;;;;;;;10.70;77.68;101965.10;102776;1285;139987;-85
2022/11/13 02:02:02;;;;;;;31.10;21.20;;;;;;;10.70;77.68;101962.62;102855;1284;97760;-85
2022/11/13 02:04:52;;;;;;;32.10;21.20;;;;;;;10.65;77.71;101961.20;102637;1284;140743;-84
2022/11/13 02:07:41;;;;;;;32.70;21.30;;;;;;;10.69;77.73;101956.58;102917;1291;94685;-85
2022/11/13 02:10:30;;;;;;;31.00;20.60;;;;;;;10.60;77.65;101952.15;102770;1299;94289;-84
2022/11/13 02:13:21;;;;;;;32.30;21.60;;;;;;;10.60;78.07;101948.41;102775;1284;106319;-84
2022/11/13 02:16:13;;;;;;;30.90;21.30;;;;;;;10.62;77.85;101947.18;102819;1291;98572;-84
2022/11/13 02:19:06;;;;;;;33.30;22.00;;;;;;;10.67;77.80;101953.21;102657;1282;139774;-83
2022/11/13 02:22:04;;;;;;;33.50;22.20;;;;;;;10.69;77.97;101957.64;102695;1291;94489;-84
2022/11/13 02:24:55;;;;;;;32.70;21.90;;;;;;;10.76;77.81;101951.41;102514;1287;140849;-85
2022/11/13 02:27:47;;;;;;;34.50;23.20;;;;;;;10.74;77.72;101952.48;102691;1291;108589;-85
2022/11/13 02:30:37;;;;;;;33.30;22.00;;;;;;;10.76;77.70;101949.11;102787;1284;141414;-84
2022/11/13 02:33:28;;;;;;;32.60;22.40;;;;;;;10.84;77.83;101947.31;102588;1284;108922;-84
2022/11/13 02:36:20;;;;;;;32.80;22.60;;;;;;;10.86;77.46;101945.88;102391;1284;140435;-84
2022/11/13 02:39:12;;;;;;;33.90;22.10;;;;;;;10.87;77.19;101944.64;102330;1283;94308;-84
2022/11/13 02:42:02;;;;;;;33.50;22.50;;;;;;;10.83;77.42;101949.98;102351;1287;140054;-84
2022/11/13 02:44:51;;;;;;;35.70;23.30;;;;;;;10.76;77.43;101948.58;102701;1277;99434;-84
2022/11/13 02:47:40;;;;;;;35.50;22.40;;;;;;;10.75;77.69;101945.20;102625;1284;140288;-84
2022/11/13 02:50:33;;;;;;;34.50;22.90;;;;;;;10.75;77.64;101947.52;102807;1283;94305;-84
2022/11/13 02:53:22;;;;;;;34.60;23.00;;;;;;;10.71;77.41;101945.38;102740;1299;139811;-84
2022/11/13 02:56:12;;;;;;;35.50;22.30;;;;;;;10.69;77.57;101944.68;102758;1285;108530;-84
2022/11/13 02:59:01;;;;;;;33.40;21.20;;;;;;;10.64;77.49;101941.30;102709;1291;141129;-84
2022/11/13 03:01:50;;;;;;;34.20;21.90;;;;;;;10.61;77.85;101945.93;102768;1290;110190;-84
2022/11/13 03:04:40;;;;;;;33.90;21.60;;;;;;;10.64;77.91;101947.89;102732;1284;94171;-84
2022/11/13 03:07:50;;;;;;;35.40;22.10;;;;;;;10.67;77.87;101954.09;102791;1302;94718;-84
2022/11/13 03:10:39;;;;;;;35.60;22.50;;;;;;;10.71;77.79;101954.97;102782;1284;107196;-85
2022/11/13 03:13:29;;;;;;;35.70;22.60;;;;;;;10.69;77.41;101953.02;102757;1291;96976;-84
2022/11/13 03:16:19;;;;;;;35.10;22.00;;;;;;;10.68;77.73;101951.44;102627;1291;108074;-85
2022/11/13 03:19:08;;;;;;;37.40;23.00;;;;;;;10.66;77.55;101946.81;102537;1277;140480;-84
2022/11/13 03:21:58;;;;;;;35.70;22.50;;;;;;;10.68;77.64;101948.23;102704;1284;94202;-84
2022/11/13 03:24:47;;;;;;;36.60;23.20;;;;;;;10.67;77.44;101946.45;102560;1277;140943;-83
2022/11/13 03:27:36;;;;;;;35.00;22.50;;;;;;;10.62;77.63;101946.46;102706;1288;96084;-83
2022/11/13 03:30:26;;;;;;;38.80;24.30;;;;;;;10.56;77.70;101950.02;102585;1284;140763;-83
2022/11/13 03:33:17;;;;;;;37.10;23.60;;;;;;;10.51;77.78;101946.30;102739;1284;94208;-84
2022/11/13 03:36:07;;;;;;;37.70;23.60;;;;;;;10.50;77.88;101951.63;102598;1284;139865;-83
2022/11/13 03:38:57;;;;;;;38.40;23.60;;;;;;;10.49;78.00;101951.45;102741;1285;106119;-84
2022/11/13 03:41:46;;;;;;;37.40;22.90;;;;;;;10.47;78.01;101955.01;102635;1284;140776;-84
2022/11/13 03:44:35;;;;;;;37.10;23.60;;;;;;;10.41;78.13;101957.33;102719;1301;109646;-85
2022/11/13 03:47:24;;;;;;;35.60;22.30;;;;;;;10.45;78.27;101957.85;102787;1284;141191;-84
2022/11/13 03:50:14;;;;;;;35.30;22.50;;;;;;;10.44;78.28;101955.55;102838;1284;94670;-92
2022/11/13 03:53:03;;;;;;;36.40;22.90;;;;;;;10.50;78.21;101955.18;102772;1278;140048;-93
2022/11/13 03:55:53;;;;;;;38.50;23.20;;;;;;;10.52;78.07;101957.31;102906;1291;97929;-93
2022/11/13 03:58:42;;;;;;;35.10;21.70;;;;;;;10.53;78.14;101955.71;102953;1284;108299;-92
2022/11/13 04:01:37;;;;;;;36.00;22.80;;;;;;;10.54;78.09;101955.36;102960;1285;95127;-93
2022/11/13 04:04:26;;;;;;;36.80;23.10;;;;;;;10.57;77.89;101955.19;102895;1283;94215;-92
2022/11/13 04:07:16;;;;;;;31.00;20.90;;;;;;;10.58;77.87;101955.88;102764;1291;139139;-93
2022/11/13 04:10:06;;;;;;;35.00;21.70;;;;;;;10.58;77.82;101959.61;102852;1300;100562;-93
2022/11/13 04:12:56;;;;;;;29.90;19.70;;;;;;;10.56;77.80;101957.48;102911;1278;140890;-93
2022/11/13 04:15:46;;;;;;;31.70;19.70;;;;;;;10.52;77.82;101953.77;102976;1277;94096;-93
2022/11/13 04:18:35;;;;;;;31.70;20.20;;;;;;;10.54;77.84;101954.82;102777;1284;140051;-93
2022/11/13 04:21:24;;;;;;;28.80;18.60;;;;;;;10.57;77.89;101954.83;102943;1284;107113;-93
2022/11/13 04:24:14;;;;;;;29.30;18.50;;;;;;;10.61;77.71;101956.58;102769;1286;141407;-93
2022/11/13 04:27:03;;;;;;;31.60;20.00;;;;;;;10.59;77.92;101959.27;103006;1293;108899;-94
2022/11/13 04:29:52;;;;;;;31.40;20.00;;;;;;;10.56;77.53;101956.77;102984;1284;140795;-93
2022/11/13 04:32:42;;;;;;;30.70;20.00;;;;;;;10.48;77.73;101956.60;103262;1297;94269;-94
2022/11/13 04:35:31;;;;;;;33.10;21.00;;;;;;;10.51;77.94;101959.44;103112;1299;140651;-94
2022/11/13 04:38:21;;;;;;;33.70;21.50;;;;;;;10.51;77.82;101959.09;103658;1291;99417;-93
2022/11/13 04:44:20;;;;;;;32.50;20.50;;;;;;;10.61;77.82;101955.16;104035;1291;94801;-93
2022/11/13 04:47:10;;;;;;;34.20;21.40;;;;;;;10.64;77.62;101958.71;103965;1294;139006;-92
2022/11/13 04:49:59;;;;;;;35.30;21.90;;;;;;;10.64;77.46;101958.02;103447;1285;106266;-95
2022/11/13 04:52:48;;;;;;;34.40;21.30;;;;;;;10.62;77.43;101956.77;102517;1285;97956;-94
2022/11/13 04:55:38;;;;;;;35.70;22.90;;;;;;;10.59;77.75;101959.61;102411;1283;107671;-93
2022/11/13 04:58:28;;;;;;;35.30;21.90;;;;;;;10.67;77.60;101962.98;102561;1291;94279;-94
2022/11/13 05:01:18;;;;;;;35.20;22.20;;;;;;;10.70;77.58;101961.20;102497;1284;140976;-91
2022/11/13 05:04:10;;;;;;;35.50;22.40;;;;;;;10.76;77.38;101961.02;102891;1291;107252;-93
2022/11/13 05:06:59;;;;;;;35.60;22.00;;;;;;;10.71;77.11;101963.86;102843;1283;139662;-93
2022/11/13 05:09:48;;;;;;;35.40;21.70;;;;;;;10.67;77.26;101967.24;102995;1284;106722;-92
2022/11/13 05:12:38;;;;;;;34.80;21.70;;;;;;;10.66;77.13;101969.55;102901;1277;139402;-94
2022/11/13 05:15:27;;;;;;;32.80;21.60;;;;;;;10.63;77.24;101974.54;103030;1291;94519;-93
2022/11/13 05:18:17;;;;;;;33.00;20.80;;;;;;;10.66;77.31;101972.73;102905;1277;139805;-93
2022/11/13 05:21:08;;;;;;;32.80;21.10;;;;;;;10.64;77.03;101969.20;102967;1283;98089;-93
2022/11/13 05:23:58;;;;;;;32.40;20.40;;;;;;;10.65;77.47;101972.58;102852;1285;140402;-93
2022/11/13 05:26:47;;;;;;;29.90;18.60;;;;;;;10.66;77.27;101977.19;102939;1284;94221;-94
2022/11/13 05:29:37;;;;;;;32.40;20.30;;;;;;;10.67;77.25;101977.02;102936;1284;141644;-94
2022/11/13 05:32:26;;;;;;;33.60;20.60;;;;;;;10.68;77.30;101980.91;103002;1278;107311;-94
2022/11/13 05:35:16;;;;;;;33.50;20.30;;;;;;;10.74;77.14;101979.13;102765;1277;139990;-94
2022/11/13 05:38:05;;;;;;;30.90;19.00;;;;;;;10.74;76.97;101985.70;103037;1278;107634;-93
2022/11/13 05:40:54;;;;;;;30.60;18.50;;;;;;;10.71;77.04;101984.64;102803;1284;140727;-92
2022/11/13 05:43:44;;;;;;;33.40;19.50;;;;;;;10.68;77.01;101988.55;102971;1285;94223;-93
2022/11/13 05:46:33;;;;;;;30.50;19.20;;;;;;;10.72;77.06;101990.34;102933;1284;106975;-95
2022/11/13 05:49:23;;;;;;;30.60;19.40;;;;;;;10.71;76.95;101990.67;102958;1291;99179;-93
2022/11/13 05:52:12;;;;;;;30.70;18.40;;;;;;;10.69;77.06;101994.77;103034;1291;106367;-94
2022/11/13 05:55:02;;;;;;;31.60;18.60;;;;;;;10.73;77.20;101995.83;102892;1284;139216;-93
2022/11/13 05:57:51;;;;;;;30.50;18.20;;;;;;;10.71;77.13;101992.99;102963;1286;94612;-93
2022/11/13 06:00:41;;;;;;;31.60;19.70;;;;;;;10.72;77.13;101991.21;102898;1278;139447;-94
2022/11/13 06:03:30;;;;;;;33.10;20.00;;;;;;;10.75;76.91;101994.95;102933;1278;98630;-93
2022/11/13 06:06:21;;;;;;;30.80;18.70;;;;;;;10.75;76.99;101995.13;102842;1291;139716;-93
2022/11/13 06:09:14;;;;;;;31.90;19.30;;;;;;;10.76;76.94;101993.52;102987;1283;95001;-94
2022/11/13 06:12:04;;;;;;;30.80;18.00;;;;;;;10.74;76.85;101988.91;102865;1288;140035;-93
2022/11/13 06:14:53;;;;;;;30.10;18.00;;;;;;;10.74;76.97;101990.31;102995;1291;107073;-94
2022/11/13 06:17:46;;;;;;;31.50;19.30;;;;;;;10.75;76.71;101992.63;102938;1290;140001;-94
2022/11/13 06:20:37;;;;;;;31.00;18.60;;;;;;;10.73;76.81;101996.36;102931;1290;107681;-93
2022/11/13 06:23:26;;;;;;;32.50;19.40;;;;;;;10.74;76.89;101991.40;102787;1307;139211;-94
2022/11/13 06:26:18;;;;;;;30.30;19.40;;;;;;;10.74;76.84;101998.85;102966;1284;94791;-93
2022/11/13 06:29:11;;;;;;;29.20;19.10;;;;;;;10.76;77.05;101996.54;102859;1300;140500;-94
2022/11/13 06:32:00;;;;;;;30.50;18.50;;;;;;;10.80;76.81;101999.73;103022;1284;99554;-95
2022/11/13 06:34:49;;;;;;;30.80;19.40;;;;;;;10.74;76.79;102005.25;102951;1292;107709;-94
2022/11/13 06:37:39;;;;;;;30.10;18.70;;;;;;;10.78;76.99;102000.80;103034;1291;95292;-94
2022/11/13 06:40:29;;;;;;;28.00;18.10;;;;;;;10.84;76.84;101995.45;103006;1284;94267;-94
2022/11/13 06:43:18;;;;;;;29.50;18.30;;;;;;;10.83;76.99;101999.20;102864;1284;139768;-94
2022/11/13 06:46:11;;;;;;;30.00;18.40;;;;;;;10.87;76.90;101995.98;102917;1293;99370;-94
2022/11/13 06:49:01;;;;;;;31.10;19.10;;;;;;;10.93;76.81;102000.06;102669;1285;138844;-94
2022/11/13 06:51:50;;;;;;;29.70;18.40;;;;;;;10.96;76.59;102000.42;102432;1283;94357;-94
2022/11/13 06:54:39;;;;;;;27.00;17.00;;;;;;;10.97;76.55;102001.30;102486;1299;140398;-94
2022/11/13 06:57:29;;;;;;;28.40;17.60;;;;;;;10.99;76.55;102002.73;103836;1283;110347;-93
2022/11/13 07:00:20;;;;;;;28.10;17.80;;;;;;;10.96;76.36;102005.21;103900;1282;139331;-94
2022/11/13 07:03:17;;;;;;;26.90;16.70;;;;;;;10.90;76.31;102004.70;103173;1294;109531;-94
2022/11/13 07:06:12;;;;;;;26.90;17.10;;;;;;;10.89;76.65;102004.52;102870;1301;140732;-95
2022/11/13 07:09:02;;;;;;;24.10;15.10;;;;;;;10.93;76.52;102001.14;103533;1301;94282;-95
2022/11/13 07:11:51;;;;;;;24.70;14.60;;;;;;;10.93;76.50;102004.52;103485;1284;139811;-94
2022/11/13 07:14:43;;;;;;;24.90;14.50;;;;;;;10.84;76.34;102003.29;104309;1282;98041;-94
2022/11/13 07:17:32;;;;;;;24.60;15.50;;;;;;;10.84;76.54;102004.88;104368;1292;139405;-93
2022/11/13 07:20:22;;;;;;;24.90;15.50;;;;;;;10.80;76.53;102005.42;102683;1290;94732;-94
2022/11/13 07:23:11;;;;;;;22.90;14.60;;;;;;;10.74;76.68;102002.23;102451;1285;140105;-94
2022/11/13 07:26:01;;;;;;;23.60;14.70;;;;;;;10.69;76.70;102004.17;102611;1291;109038;-92
2022/11/13 07:28:51;;;;;;;21.60;14.10;;;;;;;10.61;76.93;101998.87;103975;1299;97919;-95
2022/11/13 07:31:41;;;;;;;20.20;12.00;;;;;;;10.58;76.94;101999.05;103029;1284;107461;-93
2022/11/13 07:34:31;;;;;;;24.30;15.80;;;;;;;10.51;77.14;102002.41;102963;1287;94683;-94
2022/11/13 07:37:20;;;;;;;21.30;13.60;;;;;;;10.47;77.06;101996.38;102898;1285;140340;-93
2022/11/13 07:40:11;;;;;;;21.50;13.00;;;;;;;10.47;77.19;101995.32;103031;1284;107416;-95
2022/11/13 07:43:03;;;;;;;21.10;13.70;;;;;;;10.45;77.35;101994.09;102987;1284;140525;-93
2022/11/13 07:45:53;;;;;;;22.20;14.20;;;;;;;10.47;77.54;101998.16;102960;1298;109580;-93
2022/11/13 07:48:43;;;;;;;20.70;13.10;;;;;;;10.50;77.63;101998.88;102827;1292;140807;-93
2022/11/13 07:51:32;;;;;;;23.20;14.70;;;;;;;10.52;77.26;101993.55;102939;1307;94139;-93
2022/11/13 07:54:22;;;;;;;24.90;14.90;;;;;;;10.44;77.53;101992.84;102811;1292;140476;-93
2022/11/13 07:57:11;;;;;;;22.50;13.60;;;;;;;10.47;77.73;101997.45;102970;1291;98108;-95
2022/11/13 08:00:01;;;;;;;21.50;13.70;;;;;;;10.49;77.69;101995.33;102917;1291;139129;-94
2022/11/13 08:02:50;;;;;;;22.00;13.90;;;;;;;10.47;77.66;101994.07;102938;1284;95133;-94
2022/11/13 08:05:40;;;;;;;25.50;16.40;;;;;;;10.49;77.45;101994.96;103031;1285;141213;-95
2022/11/13 08:08:29;;;;;;;22.80;13.90;;;;;;;10.54;77.49;101996.04;103054;1293;107274;-95
2022/11/13 08:11:20;;;;;;;20.30;12.90;;;;;;;10.53;77.36;101996.73;102891;1291;140155;-95
2022/11/13 08:14:10;;;;;;;20.70;12.00;;;;;;;10.48;77.42;101992.66;103056;1284;106773;-94
2022/11/13 08:16:59;;;;;;;20.10;12.00;;;;;;;10.48;77.88;101996.20;103374;1284;94149;-94
2022/11/13 08:19:49;;;;;;;20.50;12.60;;;;;;;10.45;77.72;101998.52;104261;1286;94240;-94
2022/11/13 08:22:38;;;;;;;19.70;12.10;;;;;;;10.49;77.90;102000.47;104125;1285;108483;-92
2022/11/13 08:25:29;;;;;;;17.20;10.30;;;;;;;10.51;77.48;102004.20;104059;1300;140141;-90
2022/11/13 08:28:19;;;;;;;19.90;12.40;;;;;;;10.56;77.62;102001.89;103513;1283;108168;-90
2022/11/13 08:31:12;;;;;;;17.90;10.60;;;;;;;10.60;77.38;102007.57;102655;1301;140036;-91
2022/11/13 08:34:02;;;;;;;17.60;10.30;;;;;;;10.61;77.29;102003.84;102475;1291;94429;-91
2022/11/13 08:36:51;;;;;;;16.30;10.00;;;;;;;10.62;77.42;102002.42;102489;1292;140860;-91
2022/11/13 08:39:41;;;;;;;14.90;9.20;;;;;;;10.58;77.27;102000.64;102579;1294;99338;-91
2022/11/13 08:42:30;;;;;;;15.40;8.80;;;;;;;10.52;77.32;102000.11;102586;1305;140801;-91
2022/11/13 08:45:19;;;;;;;15.30;9.30;;;;;;;10.54;77.44;102001.88;102633;1285;94942;-91
2022/11/13 08:48:09;;;;;;;14.80;9.00;;;;;;;10.60;77.26;102000.47;102577;1294;138585;-91
2022/11/13 08:50:58;;;;;;;15.00;9.10;;;;;;;10.64;77.17;102000.63;102745;1304;107854;-92
2022/11/13 08:53:47;;;;;;;15.20;8.90;;;;;;;10.65;76.94;102006.67;102667;1291;139436;-90
2022/11/13 08:56:37;;;;;;;15.10;9.00;;;;;;;10.61;76.82;102004.02;102791;1291;108128;-91
2022/11/13 08:59:27;;;;;;;14.70;8.50;;;;;;;10.61;77.14;102006.33;102505;1285;140971;-90
2022/11/13 09:02:17;;;;;;;15.80;8.60;;;;;;;10.69;77.47;102006.85;102757;1289;94558;-91
2022/11/13 09:05:07;;;;;;;13.40;8.40;;;;;;;10.74;77.15;102002.23;102609;1294;108536;-91
2022/11/13 09:08:00;;;;;;;13.10;7.50;;;;;;;10.70;77.23;101999.02;102999;1288;98138;-91
2022/11/13 09:10:50;;;;;;;14.40;8.60;;;;;;;10.70;77.03;101998.14;103485;1307;108952;-90
2022/11/13 09:13:39;;;;;;;16.60;10.20;;;;;;;10.65;76.99;101998.86;102543;1307;139984;-90
2022/11/13 09:16:34;;;;;;;14.50;9.30;;;;;;;10.63;77.10;101996.55;102611;1294;94661;-91
2022/11/13 09:19:24;;;;;;;13.30;7.60;;;;;;;10.68;77.24;101989.80;102687;1304;139679;-92
2022/11/13 09:22:14;;;;;;;16.90;10.30;;;;;;;10.72;77.07;101986.06;102754;1293;97896;-90
2022/11/13 09:25:03;;;;;;;14.10;7.90;;;;;;;10.73;77.25;101984.29;102592;1301;140160;-91
2022/11/13 09:27:56;;;;;;;13.20;7.50;;;;;;;10.74;77.07;101979.13;102622;1293;94745;-90
2022/11/13 09:30:45;;;;;;;13.70;8.20;;;;;;;10.74;77.11;101983.40;102352;1294;138928;-90
2022/11/13 09:33:34;;;;;;;13.50;7.60;;;;;;;10.74;76.94;101984.98;102472;1287;108996;-90
2022/11/13 09:36:24;;;;;;;15.00;9.10;;;;;;;10.77;77.02;101986.58;102276;1294;140225;-91
2022/11/13 09:39:13;;;;;;;18.50;11.00;;;;;;;10.79;77.16;101984.63;102353;1291;109382;-90
2022/11/13 09:42:11;;;;;;;14.40;8.40;;;;;;;10.75;77.01;101981.80;102075;1297;140911;-92
2022/11/13 09:45:06;;;;;;;13.40;7.80;;;;;;;10.72;76.86;101985.70;102261;1294;94864;-90
2022/11/13 09:47:58;;;;;;;14.40;8.50;;;;;;;10.65;76.97;101985.36;102207;1302;140105;-91
2022/11/13 09:50:49;;;;;;;14.10;8.20;;;;;;;10.60;77.05;101978.81;102373;1290;98064;-92
2022/11/13 09:53:41;;;;;;;14.60;8.20;;;;;;;10.58;77.11;101974.00;102444;1301;138795;-89
2022/11/13 09:56:35;;;;;;;16.00;9.50;;;;;;;10.64;77.36;101971.33;102394;1307;95793;-90
2022/11/13 09:59:31;;;;;;;14.80;9.10;;;;;;;10.68;76.90;101973.64;102178;1286;139258;-91
2022/11/13 10:02:27;;;;;;;17.50;9.80;;;;;;;10.71;77.00;101971.32;102177;1302;146804;-92
2022/11/13 10:05:23;;;;;;;15.20;9.10;;;;;;;10.69;77.06;101970.96;102307;1288;96831;-91
2022/11/13 10:08:16;;;;;;;15.10;8.20;;;;;;;10.81;76.98;101965.08;102239;1285;108977;-90
2022/11/13 10:11:13;;;;;;;14.10;8.40;;;;;;;10.89;76.58;101959.73;102429;1295;95713;-91
2022/11/13 10:14:09;;;;;;;15.00;8.40;;;;;;;10.91;76.22;101956.36;102260;1299;95485;-91
2022/11/13 10:17:04;;;;;;;16.00;9.20;;;;;;;10.89;76.41;101953.87;102385;1304;109957;-91
2022/11/13 10:19:58;;;;;;;16.40;9.40;;;;;;;10.93;76.05;101949.24;102212;1301;139471;-92
2022/11/13 10:22:51;;;;;;;15.30;8.50;;;;;;;10.89;76.16;101949.06;102400;1302;108053;-91
2022/11/13 10:25:42;;;;;;;20.50;12.50;;;;;;;10.90;76.05;101953.69;102321;1301;140784;-93
2022/11/13 10:28:31;;;;;;;21.80;13.00;;;;;;;10.92;76.33;101953.50;102513;1284;95237;-91
2022/11/13 10:31:48;;;;;;;20.90;11.90;;;;;;;10.99;76.09;101953.67;102204;1295;140070;-91
2022/11/13 10:34:37;;;;;;;17.60;10.10;;;;;;;11.07;76.36;101948.66;102369;1294;95992;-91
2022/11/13 10:37:45;;;;;;;16.90;9.60;;;;;;;11.18;75.81;101944.90;102080;1304;139245;-92
2022/11/13 10:40:37;;;;;;;16.00;8.60;;;;;;;11.18;75.85;101947.02;102369;1297;95381;-91
2022/11/13 10:43:27;;;;;;;16.40;9.40;;;;;;;11.15;75.75;101944.90;102131;1300;140548;-91
2022/11/13 10:46:21;;;;;;;17.30;10.00;;;;;;;11.18;75.50;101941.70;102297;1309;109875;-90
2022/11/13 10:49:18;;;;;;;18.10;9.60;;;;;;;11.13;75.98;101946.69;102286;1287;139494;-91
2022/11/13 10:52:19;;;;;;;15.60;8.60;;;;;;;11.11;75.95;101942.42;102259;1301;109593;-91
2022/11/13 10:55:21;;;;;;;16.40;8.60;;;;;;;11.11;76.18;101940.48;102049;1305;142021;-90
2022/11/13 10:58:17;;;;;;;16.70;8.90;;;;;;;11.16;75.90;101939.56;102403;1285;97225;-90
2022/11/13 11:01:21;;;;;;;17.90;10.00;;;;;;;11.16;76.52;101935.65;102264;1301;141175;-91
2022/11/13 11:04:20;;;;;;;15.30;9.60;;;;;;;11.33;76.27;101929.55;102541;1292;99546;-91
2022/11/13 11:07:16;;;;;;;15.60;8.80;;;;;;;11.45;75.68;101923.42;102350;1302;140506;-91
2022/11/13 11:10:22;;;;;;;17.50;10.20;;;;;;;11.42;74.56;101924.34;102562;1305;95794;-91
2022/11/13 11:13:21;;;;;;;16.30;9.10;;;;;;;11.39;74.72;101926.66;102462;1292;140352;-91
2022/11/13 11:16:17;;;;;;;16.30;9.50;;;;;;;11.43;75.14;101925.92;102454;1299;108625;-91
2022/11/13 11:19:10;;;;;;;14.20;8.70;;;;;;;11.47;75.05;101922.88;102510;1284;140013;-90
2022/11/13 11:22:07;;;;;;;14.10;8.60;;;;;;;11.49;74.24;101919.48;102602;1290;108982;-91
2022/11/13 11:25:00;;;;;;;15.10;8.50;;;;;;;11.47;74.15;101921.46;102411;1290;140866;-90
2022/11/13 11:27:55;;;;;;;15.20;8.30;;;;;;;11.55;74.58;101928.35;102478;1291;95558;-91
2022/11/13 11:30:51;;;;;;;15.90;8.80;;;;;;;11.61;74.85;101928.67;102387;1282;139887;-91
2022/11/13 11:33:48;;;;;;;16.90;10.20;;;;;;;11.62;74.23;101927.25;102520;1302;98278;-91
2022/11/13 11:36:46;;;;;;;15.90;9.10;;;;;;;11.63;74.26;101928.48;102719;1296;141579;-91
2022/11/13 11:39:42;;;;;;;15.20;8.30;;;;;;;11.59;74.49;101932.08;102924;1307;95360;-91
2022/11/13 11:42:36;;;;;;;15.60;8.60;;;;;;;11.49;74.65;101925.72;103038;1300;140340;-91
2022/11/13 11:45:30;;;;;;;17.70;10.20;;;;;;;11.48;74.75;101917.73;103607;1291;108107;-91
2022/11/13 11:48:21;;;;;;;15.00;9.10;;;;;;;11.47;75.03;101912.40;103125;1290;140163;-92
2022/11/13 11:51:21;;;;;;;16.00;10.40;;;;;;;11.46;75.28;101906.88;102683;1285;107486;-91
2022/11/13 11:54:24;;;;;;;15.60;9.20;;;;;;;11.51;75.23;101904.89;102458;1284;139723;-91
2022/11/13 11:57:28;;;;;;;14.50;9.20;;;;;;;11.54;74.74;101908.27;102664;1301;95614;-91
2022/11/13 12:00:20;;;;;;;14.30;8.50;;;;;;;11.59;74.63;101907.69;102552;1299;138361;-92
2022/11/13 12:03:45;;;;;;;13.90;8.30;;;;;;;11.64;74.46;101903.56;102772;1301;99411;-92
2022/11/13 12:06:44;;;;;;;14.40;8.40;;;;;;;11.74;74.30;101900.66;102666;1288;140514;-91
2022/11/13 12:09:39;;;;;;;15.50;9.50;;;;;;;11.77;73.71;101899.56;102768;1277;95247;-91
2022/11/13 12:12:43;;;;;;;23.60;16.60;;;;;;;11.76;74.11;101895.66;102610;1299;140302;-92
2022/11/13 12:15:41;;;;;;;16.80;10.50;;;;;;;11.82;74.03;101890.98;102835;1300;108697;-91
2022/11/13 12:18:37;;;;;;;15.70;10.10;;;;;;;11.87;73.90;101890.07;102606;1309;140750;-92
2022/11/13 12:21:34;;;;;;;14.50;8.90;;;;;;;11.93;74.05;101891.80;102690;1302;107608;-92
2022/11/13 12:24:50;;;;;;;15.50;9.50;;;;;;;12.00;73.84;101890.89;102675;1299;142603;-91
2022/11/13 12:27:47;;;;;;;16.30;10.40;;;;;;;12.03;73.65;101894.23;102832;1284;95211;-91
2022/11/13 12:30:47;;;;;;;19.30;12.70;;;;;;;11.99;73.50;101891.42;102631;1306;138783;-92
2022/11/13 12:33:46;;;;;;;15.40;9.10;;;;;;;11.91;73.38;101886.48;102805;1296;98421;-92
2022/11/13 12:36:36;;;;;;;16.70;10.20;;;;;;;11.84;73.32;101885.27;102678;1299;142158;-92
2022/11/13 12:39:39;;;;;;;32.90;18.20;;;;;;;11.72;73.60;101886.79;102788;1296;95365;-92
2022/11/13 12:42:34;;;;;;;36.40;21.10;;;;;;;11.57;74.23;101883.88;102633;1301;140807;-92
2022/11/13 12:45:34;;;;;;;16.50;10.00;;;;;;;11.63;74.30;101880.09;102790;1302;110813;-92
2022/11/13 12:48:33;;;;;;;16.00;9.80;;;;;;;11.72;74.01;101878.44;102686;1284;139507;-92
2022/11/13 12:51:22;;;;;;;17.70;10.90;;;;;;;11.76;74.11;101878.94;102357;1305;107670;-91
2022/11/13 12:54:12;;;;;;;15.60;8.50;;;;;;;11.63;73.50;101878.50;101966;1291;139779;-91